Time;durP1;ratioP1;P1;durP2;ratioP2;P2;SDS_P1;SDS_P2;PMS_P1;PMS_P2;Temp;Humidity;BMP_temperature;BMP_pressure;BME280_temperature;BME280_humidity;BME280_pressure;Samples;Min_cycle;Max_cycle;Signal;HPM_P1;HPM_P2
2021/12/17 00:00:19;;;;;;;22.90;19.93;;;3.20;99.90;;;3.91;96.73;100022.06;5260130;28;20203;-56
2021/12/17 00:03:12;;;;;;;21.07;18.77;;;3.20;99.90;;;3.92;97.03;100019.72;5256957;28;20194;-57
2021/12/17 00:06:12;;;;;;;23.90;20.53;;;3.20;99.90;;;3.99;96.89;100014.63;5248401;28;20202;-57
2021/12/17 00:08:51;;;;;;;22.20;19.77;;;3.20;99.90;;;4.00;96.71;100013.00;5248006;28;20227;-56
2021/12/17 00:11:25;;;;;;;23.20;20.70;;;3.20;99.90;;;3.93;97.58;100008.88;5251085;28;20197;-59
2021/12/17 00:13:58;;;;;;;26.30;21.27;;;3.30;99.90;;;3.93;97.64;100008.88;5245561;28;20204;-56
2021/12/17 00:16:37;;;;;;;23.10;19.90;;;3.30;99.90;;;3.98;97.01;100005.25;5259295;28;20197;-59
2021/12/17 00:19:21;;;;;;;21.83;19.53;;;3.30;99.90;;;4.03;96.95;100001.66;5273828;22;21414;-58
2021/12/17 00:50:34;;;;;;;21.50;18.50;;;3.30;99.90;;;4.01;98.58;99962.59;5202198;28;20265;-54
2021/12/17 00:53:07;;;;;;;22.63;18.93;;;3.30;99.90;;;4.02;98.89;99956.81;5207533;28;20200;-55
2021/12/17 00:55:42;;;;;;;24.07;20.90;;;3.30;99.90;;;4.03;99.00;99945.97;5204844;28;20212;-52
2021/12/17 00:58:15;;;;;;;22.83;20.33;;;3.40;99.90;;;4.08;98.88;99956.63;5205499;28;20197;-54
2021/12/17 01:00:49;;;;;;;22.73;20.20;;;3.30;99.90;;;3.99;99.23;99966.56;5205093;28;20220;-54
2021/12/17 01:03:22;;;;;;;22.37;19.97;;;3.30;99.90;;;3.93;99.05;99964.97;5205719;28;20201;-58
2021/12/17 01:05:56;;;;;;;24.03;20.93;;;3.20;99.90;;;3.97;99.45;99975.59;5204704;28;20205;-55
2021/12/17 01:08:29;;;;;;;22.50;18.27;;;3.30;99.90;;;4.02;98.86;99978.69;5202692;28;20228;-59
2021/12/17 01:11:05;;;;;;;22.23;18.70;;;3.40;99.90;;;4.04;98.99;99987.34;5205439;28;20225;-53
2021/12/17 01:13:41;;;;;;;20.57;17.27;;;3.40;99.90;;;4.07;99.13;99990.25;5200810;28;20201;-58
2021/12/17 01:16:14;;;;;;;20.57;18.27;;;3.40;99.90;;;4.09;99.13;99985.34;5201769;28;20213;-56
2021/12/17 01:18:58;;;;;;;20.23;17.53;;;3.40;99.90;;;4.10;99.58;99987.19;5200295;28;20552;-58
2021/12/17 01:21:40;;;;;;;23.20;17.87;;;3.40;99.90;;;4.16;99.30;99982.81;5202774;28;20678;-56
2021/12/17 01:24:32;;;;;;;22.27;19.07;;;3.40;99.90;;;4.20;99.08;99990.03;5202251;28;20202;-55
2021/12/17 01:35:41;;;;;;;21.70;17.20;;;3.50;99.90;;;4.22;98.88;99978.47;5204466;28;20198;-57
2021/12/17 01:44:18;;;;;;;24.10;20.60;;;3.40;99.90;;;4.21;99.20;99980.09;5147801;28;20201;-59
2021/12/17 01:46:53;;;;;;;23.73;19.27;;;3.50;99.90;;;4.23;99.27;99977.72;5203922;28;20307;-57
2021/12/17 02:01:02;;;;;;;24.43;20.20;;;3.50;99.90;;;4.15;99.58;99960.75;5201074;28;20228;-59
2021/12/17 02:03:35;;;;;;;22.23;19.90;;;3.40;99.90;;;4.18;99.67;99967.09;5200218;28;20201;-57
2021/12/17 02:06:08;;;;;;;20.17;18.07;;;3.50;99.90;;;4.21;99.74;99961.47;5204992;28;20865;-56
2021/12/17 02:08:45;;;;;;;20.97;18.30;;;3.50;99.90;;;4.18;99.32;99956.97;5202484;28;20228;-54
2021/12/17 02:12:00;;;;;;;19.60;17.50;;;3.50;99.90;;;4.14;99.38;99954.78;5204453;28;20304;-55
2021/12/17 02:29:44;;;;;;;26.47;21.10;;;3.60;99.90;;;4.27;100.00;99932.72;5160439;28;20234;-59
2021/12/17 02:32:18;;;;;;;23.17;19.90;;;3.60;99.90;;;4.35;99.55;99935.19;5197910;28;20198;-56
2021/12/17 02:35:07;;;;;;;24.60;21.13;;;3.50;99.90;;;4.34;99.31;99934.31;5210428;28;20208;-53
2021/12/17 02:37:45;;;;;;;22.10;19.13;;;3.60;99.90;;;4.38;99.83;99923.81;5204665;28;20209;-60
2021/12/17 02:45:57;;;;;;;24.03;19.83;;;3.70;99.90;;;4.50;99.93;99924.31;5202098;28;20548;-59
2021/12/17 02:48:34;;;;;;;27.23;21.07;;;3.70;99.90;;;4.50;99.71;99917.63;5202171;28;20228;-55
2021/12/17 02:51:07;;;;;;;24.27;21.23;;;3.70;99.90;;;4.49;100.00;99923.41;5200460;28;20225;-54
2021/12/17 02:53:42;;;;;;;25.43;21.03;;;3.80;99.90;;;4.48;100.00;99914.00;5208889;28;20204;-57
2021/12/17 02:56:16;;;;;;;21.13;18.77;;;3.80;99.90;;;4.51;100.00;99914.34;5204094;28;20197;-51
2021/12/17 02:58:49;;;;;;;24.57;20.77;;;3.80;99.90;;;4.58;100.00;99915.03;5202035;28;20200;-54
2021/12/17 03:01:24;;;;;;;24.63;20.17;;;3.90;99.90;;;4.60;100.00;99914.47;5208391;28;20615;-56
2021/12/17 03:03:58;;;;;;;24.10;21.13;;;3.90;99.90;;;4.62;99.90;99907.97;5205434;28;20208;-56
2021/12/17 03:06:31;;;;;;;25.50;21.67;;;3.90;99.90;;;4.60;100.00;99914.47;5208023;28;20566;-57
2021/12/17 03:09:06;;;;;;;26.80;20.83;;;3.90;99.90;;;4.62;100.00;99917.22;5207537;28;20229;-55
2021/12/17 03:11:40;;;;;;;26.60;23.40;;;3.80;99.90;;;4.60;100.00;99913.59;5208803;28;20197;-58
2021/12/17 03:14:13;;;;;;;25.73;21.93;;;3.90;99.90;;;4.62;100.00;99910.50;5206035;28;20224;-58
2021/12/17 03:16:58;;;;;;;23.60;20.93;;;3.90;99.90;;;4.65;99.53;99907.41;5202378;28;20204;-54
2021/12/17 03:23:26;;;;;;;23.27;20.73;;;3.90;99.90;;;4.62;99.70;99907.97;5206737;28;20221;-55
2021/12/17 03:25:17;;;;;;;24.20;20.90;;;3.90;99.90;;;4.68;99.90;99907.75;5201502;28;20200;-57
2021/12/17 03:27:50;;;;;;;22.67;19.43;;;3.90;99.90;;;4.68;100.00;99915.38;5219550;28;20221;-56
2021/12/17 03:30:23;;;;;;;23.00;19.80;;;3.90;99.90;;;4.69;100.00;99920.63;5205986;28;20218;-54
2021/12/17 03:32:57;;;;;;;24.40;19.73;;;3.90;99.90;;;4.65;99.84;99920.97;5206384;28;20206;-58
2021/12/17 03:35:30;;;;;;;25.00;20.30;;;3.90;99.90;;;4.69;99.67;99922.22;5206659;28;20198;-56
2021/12/17 03:38:03;;;;;;;24.37;21.47;;;3.90;99.90;;;4.71;99.93;99924.19;5207618;28;20226;-53
2021/12/17 03:40:40;;;;;;;24.40;20.17;;;3.90;99.90;;;4.73;99.76;99921.84;5206732;28;20220;-58
2021/12/17 03:43:21;;;;;;;21.97;19.30;;;4.00;99.90;;;4.73;99.86;99922.75;5191983;28;20198;-55
2021/12/17 03:45:54;;;;;;;24.53;21.00;;;4.00;99.90;;;4.76;100.00;99921.31;5204266;28;20293;-59
2021/12/17 03:48:29;;;;;;;23.67;21.17;;;4.00;99.90;;;4.79;100.00;99925.06;5205725;28;20711;-57
2021/12/17 03:51:03;;;;;;;21.70;19.37;;;4.00;99.90;;;4.82;99.86;99930.50;5206505;28;20222;-56
2021/12/17 03:53:36;;;;;;;23.77;20.57;;;4.00;99.90;;;4.82;99.80;99922.88;5207549;28;20205;-56
2021/12/17 03:56:11;;;;;;;25.43;20.57;;;4.00;99.90;;;4.87;99.44;99920.88;5206293;28;20206;-55
2021/12/17 03:58:44;;;;;;;23.23;19.47;;;4.00;99.90;;;4.81;99.48;99920.16;5205596;28;20189;-59
2021/12/17 04:01:18;;;;;;;25.93;20.93;;;4.00;99.90;;;4.74;99.53;99927.06;5208831;28;20220;-55
2021/12/17 04:03:51;;;;;;;23.73;19.87;;;4.00;99.90;;;4.76;99.78;99934.88;5205813;28;20200;-56
2021/12/17 04:06:24;;;;;;;24.10;19.50;;;4.00;99.90;;;4.73;99.62;99921.84;5195086;28;20216;-53
2021/12/17 04:08:57;;;;;;;24.03;20.40;;;4.00;99.90;;;4.79;99.10;99935.22;5207016;28;20748;-52
2021/12/17 04:11:32;;;;;;;26.13;20.83;;;4.00;99.90;;;4.74;99.53;99923.66;5205465;28;20209;-53
2021/12/17 04:14:05;;;;;;;23.03;20.20;;;4.00;99.90;;;4.85;98.75;99919.81;5207147;28;20206;-57
2021/12/17 04:16:38;;;;;;;22.37;19.40;;;4.10;99.90;;;4.83;99.32;99909.47;5206419;28;20198;-56
2021/12/17 04:19:11;;;;;;;24.10;20.07;;;4.00;99.90;;;4.77;99.53;99903.72;5208694;28;20232;-54
2021/12/17 04:21:48;;;;;;;23.67;19.97;;;4.00;99.90;;;4.82;99.67;99897.56;5199834;28;20198;-55
2021/12/17 04:24:21;;;;;;;22.97;18.87;;;4.00;99.90;;;4.82;99.39;99897.56;5205254;28;20578;-57
2021/12/17 04:26:56;;;;;;;23.77;19.47;;;4.00;99.90;;;4.72;99.53;99899.78;5206950;28;20198;-56
2021/12/17 04:29:29;;;;;;;26.20;21.20;;;4.00;99.90;;;4.73;99.84;99904.13;5206255;28;20239;-56
2021/12/17 04:32:02;;;;;;;26.03;22.17;;;4.00;99.90;;;4.72;99.54;99890.56;5204221;28;20198;-57
2021/12/17 04:34:35;;;;;;;23.73;19.77;;;4.00;99.90;;;4.74;99.93;99894.16;5211948;28;20205;-54
2021/12/17 04:37:08;;;;;;;25.90;21.80;;;4.00;99.90;;;4.79;99.73;99893.78;5208702;28;20205;-53
2021/12/17 04:39:42;;;;;;;22.70;18.93;;;4.00;99.90;;;4.88;99.33;99902.41;5206368;28;20218;-55
2021/12/17 04:42:22;;;;;;;22.47;18.80;;;4.00;99.90;;;4.84;99.48;99901.16;5205560;28;20198;-57
2021/12/17 04:44:57;;;;;;;24.43;20.13;;;4.00;99.90;;;4.84;100.00;99896.09;5204753;28;20204;-59
2021/12/17 04:58:55;;;;;;;24.03;20.17;;;4.00;99.90;;;4.80;100.00;99893.94;5197457;28;20270;-59
2021/12/17 05:01:28;;;;;;;22.20;19.63;;;4.00;99.90;;;4.79;100.00;99889.63;5197333;28;20340;-57
2021/12/17 05:04:02;;;;;;;24.30;19.73;;;4.00;99.90;;;4.85;99.55;99885.22;5204467;28;20567;-56
2021/12/17 05:06:35;;;;;;;24.40;19.73;;;4.00;99.90;;;4.79;99.86;99901.38;5201942;28;20225;-59
2021/12/17 05:09:09;;;;;;;21.27;18.43;;;4.00;99.90;;;4.75;99.92;99895.09;5208992;28;20226;-60
2021/12/17 05:20:31;;;;;;;25.23;20.80;;;3.90;99.90;;;4.73;99.48;99891.47;5205213;28;20329;-56
2021/12/17 05:23:04;;;;;;;23.37;18.83;;;3.90;99.90;;;4.73;99.61;99881.34;5202542;28;20579;-59
2021/12/17 05:25:37;;;;;;;24.03;20.13;;;3.90;99.90;;;4.72;99.70;99882.97;5203288;28;20198;-56
2021/12/17 05:28:10;;;;;;;24.00;20.13;;;3.90;99.90;;;4.69;100.00;99885.16;5198269;28;20202;-57
2021/12/17 05:30:46;;;;;;;22.73;19.37;;;3.90;99.90;;;4.67;100.00;99883.19;5201342;28;20708;-59
2021/12/17 05:33:21;;;;;;;23.67;19.70;;;3.90;99.90;;;4.69;100.00;99875.03;5202107;28;20679;-58
2021/12/17 05:35:56;;;;;;;21.87;18.67;;;3.90;99.90;;;4.69;100.00;99874.09;5204646;28;20189;-64
2021/12/17 05:38:30;;;;;;;22.73;18.73;;;3.90;99.90;;;4.65;100.00;99872.84;5202506;28;20197;-57
2021/12/17 05:41:03;;;;;;;25.33;19.30;;;3.90;99.90;;;4.68;100.00;99877.38;5198969;28;20838;-55
2021/12/17 05:43:38;;;;;;;22.93;18.90;;;3.90;99.90;;;4.69;100.00;99886.75;5204410;28;20211;-54
2021/12/17 05:46:23;;;;;;;21.37;17.57;;;3.90;99.90;;;4.73;100.00;99886.41;5201253;28;20204;-55
2021/12/17 05:48:56;;;;;;;23.80;19.27;;;3.90;99.90;;;4.72;100.00;99887.09;5199528;28;20221;-58
2021/12/17 05:51:33;;;;;;;21.93;19.33;;;3.90;99.90;;;4.74;100.00;99899.22;5202973;28;20220;-57
2021/12/17 05:54:06;;;;;;;20.87;17.80;;;3.90;99.90;;;4.69;100.00;99914.63;5206634;28;20212;-56
2021/12/17 05:56:39;;;;;;;22.83;19.37;;;3.90;99.90;;;4.70;100.00;99914.81;5201897;28;20206;-55
2021/12/17 05:59:13;;;;;;;23.23;19.50;;;3.90;99.90;;;4.69;99.97;99907.03;5200922;28;20222;-61
2021/12/17 06:01:48;;;;;;;24.27;19.77;;;3.90;99.90;;;4.66;100.00;99916.81;5195042;28;20194;-54
2021/12/17 06:04:21;;;;;;;23.03;19.93;;;3.90;99.90;;;4.63;100.00;99924.97;5198663;28;20220;-59
2021/12/17 06:06:54;;;;;;;23.83;20.77;;;3.80;99.90;;;4.63;99.99;99917.38;5202727;28;20198;-57
2021/12/17 06:09:27;;;;;;;23.67;20.40;;;3.80;99.90;;;4.64;99.08;99915.75;5203369;28;20228;-54
2021/12/17 06:12:00;;;;;;;24.13;21.63;;;3.80;99.90;;;4.55;99.30;99912.16;5199257;28;20578;-56
2021/12/17 06:14:33;;;;;;;21.83;19.40;;;3.70;99.90;;;4.56;99.35;99908.91;5202739;28;20202;-57
2021/12/17 06:17:07;;;;;;;23.27;19.77;;;3.80;99.90;;;4.55;99.70;99910.56;5212441;28;20209;-58
2021/12/17 06:19:40;;;;;;;22.33;18.00;;;3.80;99.90;;;4.57;99.54;99905.66;5202378;28;20611;-57
2021/12/17 06:22:15;;;;;;;18.87;15.47;;;3.70;99.90;;;4.53;99.30;99903.50;5203199;28;20619;-61
2021/12/17 06:24:48;;;;;;;19.40;15.63;;;3.70;99.90;;;4.47;98.97;99911.31;5197210;28;20664;-57
2021/12/17 06:27:23;;;;;;;18.70;16.07;;;3.60;99.90;;;4.43;99.20;99917.63;5202761;28;20567;-58
2021/12/17 06:29:57;;;;;;;18.33;15.73;;;3.60;99.90;;;4.32;99.73;99918.06;5204683;28;20734;-56
2021/12/17 06:32:32;;;;;;;19.53;16.40;;;3.60;99.90;;;4.29;100.00;99910.09;5202457;28;20202;-59
2021/12/17 06:35:07;;;;;;;21.70;17.00;;;3.60;99.90;;;4.31;100.00;99913.72;5201964;28;20626;-61
2021/12/17 06:37:41;;;;;;;18.63;16.63;;;3.60;99.90;;;4.32;100.00;99917.13;5203063;28;20371;-53
2021/12/17 06:40:14;;;;;;;21.20;17.70;;;3.60;99.90;;;4.20;100.00;99920.06;5206162;28;20228;-57
2021/12/17 06:42:47;;;;;;;18.63;16.67;;;3.50;99.90;;;4.19;100.00;99919.91;5206089;28;20677;-61
2021/12/17 06:45:35;;;;;;;20.67;18.40;;;3.50;99.90;;;4.21;100.00;99926.06;5194846;28;20271;-57
2021/12/17 06:48:10;;;;;;;22.17;17.97;;;3.50;99.90;;;4.23;100.00;99934.69;5204998;28;20194;-59
2021/12/17 06:59:35;;;;;;;18.67;16.67;;;3.50;99.90;;;4.25;100.00;99918.06;5201028;28;20715;-60
2021/12/17 07:10:51;;;;;;;19.07;16.43;;;3.50;99.90;;;4.24;100.00;99939.97;5169709;28;20233;-60
2021/12/17 07:22:03;;;;;;;23.30;17.23;;;3.30;99.90;;;4.11;100.00;99948.47;5199011;28;20202;-57
2021/12/17 07:33:14;;;;;;;20.90;17.80;;;3.20;99.90;;;3.98;100.00;99941.13;5193945;28;20207;-60
2021/12/17 07:35:51;;;;;;;17.97;16.03;;;3.20;99.90;;;3.92;99.93;99946.38;5201240;28;20205;-60
2021/12/17 07:38:39;;;;;;;17.97;16.07;;;3.10;99.90;;;3.86;99.96;99940.56;5197613;28;20206;-60
2021/12/17 07:41:12;;;;;;;17.30;15.50;;;3.10;99.90;;;3.81;99.90;99941.69;5203647;28;20190;-61
2021/12/17 07:43:54;;;;;;;17.33;15.57;;;3.00;99.90;;;3.79;99.96;99950.69;5204791;28;20206;-61
2021/12/17 07:46:27;;;;;;;17.67;15.43;;;3.00;99.90;;;3.77;100.00;99953.03;5199027;28;20198;-63
2021/12/17 07:48:59;;;;;;;17.37;15.57;;;2.90;99.90;;;3.72;99.76;99955.75;5205521;28;20624;-59
2021/12/17 07:51:32;;;;;;;18.53;16.03;;;2.90;99.90;;;3.69;99.65;99946.22;5205481;28;20220;-59
2021/12/17 07:54:06;;;;;;;16.90;15.07;;;2.90;99.90;;;3.65;99.50;99953.25;5204958;28;20717;-60
2021/12/17 07:56:40;;;;;;;20.40;18.33;;;2.90;99.90;;;3.68;99.33;99951.97;5202372;28;20288;-61
2021/12/17 07:59:14;;;;;;;21.47;19.20;;;2.80;99.90;;;3.64;99.24;99956.50;5205990;28;20225;-58
2021/12/17 08:01:48;;;;;;;22.43;20.07;;;2.80;99.90;;;3.63;99.24;99954.66;5202882;28;20206;-61
2021/12/17 08:04:21;;;;;;;21.07;18.70;;;2.80;99.90;;;3.64;99.20;99956.50;5205299;28;20609;-61
2021/12/17 08:06:54;;;;;;;21.23;18.93;;;2.80;99.90;;;3.65;99.13;99959.19;5202217;28;20197;-60
2021/12/17 08:09:29;;;;;;;22.40;16.70;;;2.80;99.90;;;3.64;98.76;99964.09;5202547;28;20626;-61
2021/12/17 08:12:02;;;;;;;22.87;17.33;;;2.70;99.90;;;3.70;98.95;99964.81;5202381;28;20568;-62
2021/12/17 08:14:35;;;;;;;17.83;15.73;;;2.80;99.90;;;3.76;98.96;99965.53;5201601;28;20197;-60
2021/12/17 08:17:28;;;;;;;20.83;17.10;;;2.90;99.90;;;3.86;99.23;99970.91;5201830;28;20201;-61
2021/12/17 08:25:51;;;;;;;17.57;14.77;;;3.10;99.90;;;4.03;99.10;99955.16;5204720;28;21561;-61
2021/12/17 08:28:25;;;;;;;20.17;16.77;;;3.20;99.90;;;4.13;99.06;99955.53;5201298;28;20292;-59
2021/12/17 08:30:58;;;;;;;18.13;15.17;;;3.30;99.90;;;4.10;99.12;99955.19;5202173;28;20237;-60
2021/12/17 08:33:31;;;;;;;20.67;14.73;;;3.30;99.90;;;4.07;99.15;99953.19;5202839;28;20235;-58
2021/12/17 08:36:05;;;;;;;22.57;15.70;;;3.30;99.90;;;4.00;98.51;99952.28;5203697;28;20201;-61
2021/12/17 08:38:38;;;;;;;22.60;16.73;;;3.30;99.90;;;4.07;98.80;99957.34;5204850;28;20272;-60
2021/12/17 08:41:14;;;;;;;15.90;13.93;;;3.30;99.90;;;4.13;98.43;99953.00;5202703;28;20190;-61
2021/12/17 08:43:47;;;;;;;21.63;16.93;;;3.30;99.90;;;4.13;98.58;99947.03;5199587;28;20202;-60
2021/12/17 08:46:21;;;;;;;20.20;17.97;;;3.30;99.90;;;4.16;99.13;99954.97;5202949;28;20206;-60
2021/12/17 08:48:54;;;;;;;25.17;20.40;;;3.40;99.90;;;4.14;99.88;99953.91;5197496;28;20194;-62
2021/12/17 08:51:27;;;;;;;21.80;19.20;;;3.40;99.90;;;4.19;99.63;99950.28;5202955;28;20838;-61
2021/12/17 08:54:00;;;;;;;27.60;16.17;;;3.40;99.90;;;4.10;99.02;99946.69;5198456;28;20674;-61
2021/12/17 08:56:38;;;;;;;19.90;15.43;;;3.40;99.90;;;4.07;98.71;99943.06;5199045;28;20204;-62
2021/12/17 08:59:13;;;;;;;22.23;16.10;;;3.30;99.90;;;4.17;98.92;99949.19;5195337;28;20225;-61
2021/12/17 09:01:46;;;;;;;25.17;16.07;;;3.40;99.90;;;4.22;98.61;99935.44;5197360;28;20288;-62
2021/12/17 09:04:19;;;;;;;20.57;17.03;;;3.40;99.90;;;4.23;99.07;99942.28;5200756;28;20308;-61
2021/12/17 09:06:52;;;;;;;28.93;15.63;;;3.50;99.90;;;4.30;99.03;99952.41;5201523;28;20217;-61
2021/12/17 09:09:27;;;;;;;20.30;15.40;;;3.60;99.90;;;4.37;99.12;99952.38;5201438;28;20222;-61
2021/12/17 09:12:01;;;;;;;21.90;17.57;;;3.60;99.90;;;4.53;99.10;99949.09;5202336;28;20231;-61
2021/12/17 09:14:35;;;;;;;20.83;16.60;;;3.80;99.90;;;4.68;98.76;99945.75;5201497;28;20629;-61
2021/12/17 09:17:08;;;;;;;21.17;16.17;;;3.90;99.90;;;4.81;97.58;99942.97;5196926;28;20662;-61
2021/12/17 09:19:42;;;;;;;16.97;14.63;;;4.00;99.90;;;4.88;97.56;99943.84;5203062;28;20597;-60
2021/12/17 09:22:15;;;;;;;18.73;16.03;;;4.10;99.90;;;4.71;97.84;99949.53;5201318;28;20201;-61
2021/12/17 09:24:48;;;;;;;16.63;14.83;;;4.10;99.90;;;4.99;98.75;99947.59;5202688;28;20193;-62
2021/12/17 09:27:22;;;;;;;17.67;15.77;;;4.30;99.90;;;5.25;97.92;99942.91;5200442;28;20284;-61
2021/12/17 09:29:55;;;;;;;17.47;15.50;;;4.60;99.90;;;5.46;97.49;99940.94;5202063;28;20225;-60
2021/12/17 09:32:29;;;;;;;17.63;15.77;;;4.80;99.90;;;5.60;95.70;99948.41;5199133;28;20222;-62
2021/12/17 09:35:02;;;;;;;15.73;13.93;;;5.00;99.90;;;5.74;96.12;99942.34;5198524;28;20209;-61
2021/12/17 09:37:35;;;;;;;17.10;15.20;;;5.10;99.90;;;5.85;95.60;99941.88;5202987;28;20916;-62
2021/12/17 09:40:11;;;;;;;17.93;16.03;;;5.30;99.90;;;6.04;94.63;99939.75;5203984;28;20598;-61
2021/12/17 09:42:47;;;;;;;17.20;14.83;;;5.40;99.90;;;6.19;94.17;99935.41;5198441;28;20189;-62
2021/12/17 09:45:20;;;;;;;16.93;14.10;;;5.60;99.90;;;6.28;94.03;99947.44;5201019;28;20202;-61
2021/12/17 09:47:54;;;;;;;16.43;14.73;;;5.70;99.90;;;6.42;93.45;99942.94;5197640;28;20645;-61
2021/12/17 09:50:27;;;;;;;16.93;15.10;;;5.80;99.90;;;6.59;91.08;99940.56;5199261;28;20309;-62
2021/12/17 09:53:00;;;;;;;15.43;13.93;;;6.00;99.90;;;6.66;90.48;99944.63;5200152;28;20249;-62
2021/12/17 09:55:34;;;;;;;19.53;16.27;;;6.10;99.90;;;6.73;90.74;99950.53;5201249;28;20202;-61
2021/12/17 09:58:09;;;;;;;18.53;15.67;;;6.20;99.90;;;6.82;91.01;99944.63;5201121;28;20221;-61
2021/12/17 10:00:42;;;;;;;18.30;15.30;;;6.30;99.90;;;6.90;90.57;99948.88;5202152;28;20219;-62
2021/12/17 10:03:15;;;;;;;18.30;14.63;;;6.40;99.90;;;7.01;90.76;99943.28;5201252;28;20653;-61
2021/12/17 10:05:49;;;;;;;28.83;15.40;;;6.60;99.90;;;7.18;89.86;99938.31;5199120;28;20244;-62
2021/12/17 10:08:25;;;;;;;16.57;13.27;;;6.70;99.90;;;7.25;88.62;99944.94;5202663;28;20208;-62
2021/12/17 10:11:01;;;;;;;16.13;14.53;;;6.80;99.90;;;7.45;88.13;99934.25;5198275;28;20685;-61
2021/12/17 10:13:36;;;;;;;15.00;13.40;;;6.90;99.90;;;7.58;87.49;99938.94;5201104;28;20198;-60
2021/12/17 10:16:12;;;;;;;14.97;13.40;;;7.00;99.90;;;7.57;87.12;99935.50;5203831;28;20204;-61
2021/12/17 10:18:48;;;;;;;14.77;13.23;;;7.00;99.90;;;7.61;86.15;99930.00;5208068;28;20188;-61
2021/12/17 10:21:25;;;;;;;14.67;13.07;;;7.00;99.90;;;7.66;85.83;99935.53;5204816;28;20202;-61
2021/12/17 10:23:58;;;;;;;13.80;12.50;;;7.00;99.90;;;7.70;84.34;99939.28;5204818;28;20572;-61
2021/12/17 10:26:44;;;;;;;14.80;13.40;;;7.10;99.90;;;8.10;80.80;99937.50;5204369;28;20208;-61
2021/12/17 10:29:22;;;;;;;12.40;11.20;;;7.40;99.90;;;8.02;80.41;99933.28;5184319;28;20218;-61
2021/12/17 10:31:58;;;;;;;12.57;11.43;;;7.40;99.90;;;7.90;81.05;99932.06;5204114;28;20202;-61
2021/12/17 10:34:31;;;;;;;13.00;11.80;;;7.30;99.90;;;7.85;82.13;99930.69;5204140;28;20240;-61
2021/12/17 10:37:04;;;;;;;12.43;11.33;;;7.30;99.90;;;7.88;83.28;99939.53;5204941;28;20577;-61
2021/12/17 10:39:37;;;;;;;10.67;9.77;;;7.30;99.90;;;7.94;83.64;99935.81;5204146;28;20235;-61
2021/12/17 10:42:12;;;;;;;9.50;8.70;;;7.30;99.90;;;7.98;81.51;99922.63;5205053;28;20554;-62
2021/12/17 10:47:57;;;;;;;10.47;9.57;;;7.40;99.90;;;8.11;78.71;99929.09;5245788;27;21162;-62
2021/12/17 10:50:30;;;;;;;8.90;8.10;;;7.40;99.90;;;8.11;78.47;99929.09;5216882;28;20221;-61
2021/12/17 10:53:08;;;;;;;8.13;7.53;;;7.40;99.90;;;8.15;78.89;99924.31;5220609;28;20200;-62
2021/12/17 10:55:46;;;;;;;8.40;7.70;;;7.40;99.90;;;8.19;78.45;99928.97;5218091;28;20226;-61
2021/12/17 10:58:19;;;;;;;9.03;8.33;;;7.50;99.90;;;8.09;77.13;99925.50;5214171;28;20296;-62
2021/12/17 11:01:01;;;;;;;39.92;31.27;;;7.50;99.90;;;8.12;78.30;99930.00;5218727;28;20224;-61
2021/12/17 11:03:41;;;;;;;15.43;13.83;;;7.50;99.90;;;8.32;78.76;99929.44;5211001;28;20205;-62
2021/12/17 11:06:15;;;;;;;9.77;8.87;;;7.70;99.90;;;8.32;78.23;99911.59;5207588;28;20213;-62
2021/12/17 11:08:48;;;;;;;9.87;9.07;;;7.80;99.90;;;8.37;77.97;99917.16;5205784;28;20211;-63
2021/12/17 11:11:21;;;;;;;10.40;9.60;;;7.90;99.90;;;8.59;77.25;99907.47;5204241;28;20545;-62
2021/12/17 11:13:57;;;;;;;10.07;9.27;;;7.90;99.90;;;8.67;75.49;99901.44;5215537;28;20197;-62
2021/12/17 11:16:30;;;;;;;9.10;8.20;;;8.00;99.90;;;8.55;77.15;99907.16;5212131;28;20661;-62
2021/12/17 11:19:06;;;;;;;9.43;8.60;;;8.00;99.90;;;8.64;77.10;99898.59;5217527;28;20315;-62
2021/12/17 11:21:40;;;;;;;9.33;8.53;;;8.00;99.90;;;8.66;78.46;99897.09;5218412;28;20207;-62
2021/12/17 11:24:14;;;;;;;9.33;8.43;;;7.90;99.90;;;8.67;77.58;99898.91;5223223;28;20632;-62
2021/12/17 11:26:48;;;;;;;8.83;8.00;;;8.00;99.90;;;8.76;78.72;99899.81;5221664;28;20225;-62
2021/12/17 11:29:22;;;;;;;8.67;7.87;;;8.10;99.90;;;8.88;75.20;99895.91;5216768;28;20217;-62
2021/12/17 11:31:56;;;;;;;9.13;8.33;;;8.20;99.90;;;8.82;76.04;99897.84;5213515;28;20215;-61
2021/12/17 11:34:31;;;;;;;9.30;8.47;;;8.20;99.90;;;8.72;77.27;99897.69;5224473;28;20206;-61
2021/12/17 11:37:09;;;;;;;8.93;8.13;;;8.20;99.90;;;8.91;76.61;99896.19;5222663;28;20189;-58
2021/12/17 11:39:50;;;;;;;8.95;8.15;;;8.30;99.90;;;8.96;75.87;99894.97;5221677;28;20225;-62
2021/12/17 11:43:05;;;;;;;8.70;7.90;;;8.30;99.90;;;9.07;74.91;99898.56;5222850;28;20288;-59
2021/12/17 11:45:39;;;;;;;7.83;7.23;;;8.40;99.90;;;8.89;75.34;99900.22;5217928;28;20206;-59
2021/12/17 11:48:19;;;;;;;8.10;7.38;;;8.30;99.90;;;9.03;75.34;99896.47;5220976;28;20288;-60
2021/12/17 11:51:13;;;;;;;7.70;7.10;;;8.30;99.90;;;8.95;75.70;99889.72;5211883;28;20240;-62
2021/12/17 11:54:00;;;;;;;8.48;7.70;;;8.40;99.90;;;8.80;76.02;99907.00;5223743;28;20201;-60
2021/12/17 11:56:42;;;;;;;8.10;7.40;;;8.30;99.90;;;8.83;75.49;99897.09;5220239;28;20193;-62
2021/12/17 11:59:40;;;;;;;8.30;7.60;;;8.20;99.90;;;8.69;75.54;99890.66;5204355;28;20222;-61
2021/12/17 12:02:20;;;;;;;9.18;8.40;;;8.10;99.90;;;8.63;76.65;99894.25;5205942;28;20552;-61
2021/12/17 12:04:56;;;;;;;8.77;7.97;;;8.00;99.90;;;8.67;76.07;99881.06;5197879;28;20256;-61
2021/12/17 12:07:37;;;;;;;8.13;7.43;;;8.00;99.90;;;8.57;77.63;99882.72;5192731;28;20761;-62
2021/12/17 12:10:23;;;;;;;8.20;7.50;;;8.00;99.90;;;8.70;76.39;99884.81;5196333;28;20222;-62
2021/12/17 12:13:01;;;;;;;8.83;8.13;;;8.00;99.90;;;8.61;76.72;99883.91;5205725;28;20204;-62
2021/12/17 12:15:40;;;;;;;7.93;7.23;;;8.00;99.90;;;8.73;77.46;99874.03;5205970;28;20282;-61
2021/12/17 12:18:18;;;;;;;8.13;7.43;;;8.10;99.90;;;8.74;77.69;99873.25;5200043;28;20695;-62
2021/12/17 12:21:02;;;;;;;8.67;7.97;;;8.10;99.90;;;8.75;77.11;99872.50;5201117;28;20226;-61
2021/12/17 12:23:44;;;;;;;8.13;7.53;;;8.10;99.90;;;8.79;76.46;99864.41;5195180;28;20204;-62
2021/12/17 12:26:40;;;;;;;8.50;7.70;;;8.20;99.90;;;8.82;77.43;99856.16;5207195;28;20228;-61
2021/12/17 12:29:21;;;;;;;8.13;7.43;;;8.30;99.90;;;8.86;76.76;99861.69;5202348;28;20225;-61
2021/12/17 12:32:17;;;;;;;8.27;7.57;;;8.30;99.90;;;8.80;76.65;99861.09;5206258;28;20284;-62
2021/12/17 12:34:51;;;;;;;7.80;7.10;;;8.20;99.90;;;8.88;76.64;99850.00;5201265;28;20289;-62
2021/12/17 12:37:27;;;;;;;8.63;7.82;;;8.30;99.90;;;8.95;76.10;99857.47;5202843;28;20650;-62
2021/12/17 12:40:21;;;;;;;8.52;7.72;;;8.30;99.90;;;9.11;76.49;99856.38;5204656;28;20218;-62
2021/12/17 12:42:57;;;;;;;8.45;7.75;;;8.40;99.90;;;9.07;76.23;99854.28;5199314;28;20277;-61
2021/12/17 12:45:32;;;;;;;8.48;7.68;;;8.40;99.90;;;9.11;76.98;99841.09;5208617;28;20218;-61
2021/12/17 12:48:05;;;;;;;8.48;7.78;;;8.40;99.90;;;9.18;75.03;99840.91;5201030;28;20276;-61
2021/12/17 12:50:39;;;;;;;8.77;7.97;;;8.50;99.90;;;9.08;75.57;99843.34;5193439;28;20643;-62
2021/12/17 12:53:12;;;;;;;8.65;7.85;;;8.40;99.90;;;9.09;75.08;99855.34;5203228;28;20194;-62
2021/12/17 12:55:48;;;;;;;9.02;8.23;;;8.50;99.90;;;9.07;75.22;99872.13;5204194;28;20202;-61
2021/12/17 12:58:27;;;;;;;8.20;7.50;;;8.40;99.90;;;9.06;75.18;99875.47;5203468;28;20244;-61
2021/12/17 13:01:02;;;;;;;7.57;6.90;;;8.50;99.90;;;9.09;76.42;99871.53;5210254;28;20213;-61
2021/12/17 13:03:37;;;;;;;8.15;7.45;;;8.40;99.90;;;8.99;74.70;99869.78;5202432;28;20245;-62
2021/12/17 13:06:17;;;;;;;8.90;8.10;;;8.40;99.90;;;8.86;75.60;99869.34;5201204;28;20208;-62
2021/12/17 13:08:54;;;;;;;8.30;7.63;;;8.20;99.90;;;8.81;75.57;99862.88;5203525;28;20265;-62
2021/12/17 13:11:29;;;;;;;8.93;8.13;;;8.10;99.90;;;8.55;75.69;99847.63;5196954;28;20208;-61
2021/12/17 13:14:09;;;;;;;9.23;8.45;;;7.90;99.90;;;8.42;77.31;99840.47;5204178;28;20585;-61
2021/12/17 13:17:05;;;;;;;8.20;7.50;;;7.80;99.90;;;8.48;77.06;99840.16;5206615;28;20194;-61
2021/12/17 13:22:56;;;;;;;9.15;8.25;;;7.70;99.90;;;8.43;78.30;99846.44;5198785;28;20198;-61